sensor_id;sensor_type;location;lat;lon;timestamp;temperature;humidity
63802;DHT22;49949;43.060;25.624;2022-07-30T00:02:24;21.10;93.50
63802;DHT22;49949;43.060;25.624;2022-07-30T00:04:49;21.10;93.50
63802;DHT22;49949;43.060;25.624;2022-07-30T00:07:15;21.00;93.70
63802;DHT22;49949;43.060;25.624;2022-07-30T00:09:41;21.00;93.10
63802;DHT22;49949;43.060;25.624;2022-07-30T00:12:07;21.00;93.00
63802;DHT22;49949;43.060;25.624;2022-07-30T00:14:33;21.00;93.40
63802;DHT22;49949;43.060;25.624;2022-07-30T00:17:00;21.00;94.10
63802;DHT22;49949;43.060;25.624;2022-07-30T00:19:26;20.90;95.40
63802;DHT22;49949;43.060;25.624;2022-07-30T00:21:52;20.90;95.50
63802;DHT22;49949;43.060;25.624;2022-07-30T00:24:19;20.90;95.60
63802;DHT22;49949;43.060;25.624;2022-07-30T00:26:45;20.80;95.70
63802;DHT22;49949;43.060;25.624;2022-07-30T00:29:11;20.80;95.40
63802;DHT22;49949;43.060;25.624;2022-07-30T00:31:37;20.80;94.40
63802;DHT22;49949;43.060;25.624;2022-07-30T00:34:03;20.80;93.90
63802;DHT22;49949;43.060;25.624;2022-07-30T00:36:28;20.70;95.50
63802;DHT22;49949;43.060;25.624;2022-07-30T00:38:54;20.60;96.80
63802;DHT22;49949;43.060;25.624;2022-07-30T00:41:20;20.60;97.30
63802;DHT22;49949;43.060;25.624;2022-07-30T00:43:45;20.60;98.10
63802;DHT22;49949;43.060;25.624;2022-07-30T00:46:11;20.50;97.80
63802;DHT22;49949;43.060;25.624;2022-07-30T00:48:39;20.50;98.00
63802;DHT22;49949;43.060;25.624;2022-07-30T00:51:05;20.50;98.10
63802;DHT22;49949;43.060;25.624;2022-07-30T00:53:31;20.40;98.30
63802;DHT22;49949;43.060;25.624;2022-07-30T00:55:57;20.40;98.70
63802;DHT22;49949;43.060;25.624;2022-07-30T00:58:23;20.30;99.70
63802;DHT22;49949;43.060;25.624;2022-07-30T01:00:49;20.20;99.90
63802;DHT22;49949;43.060;25.624;2022-07-30T01:03:14;20.20;99.90
63802;DHT22;49949;43.060;25.624;2022-07-30T01:05:40;20.20;99.90
63802;DHT22;49949;43.060;25.624;2022-07-30T01:08:06;20.20;99.90
63802;DHT22;49949;43.060;25.624;2022-07-30T01:10:32;20.20;99.90
63802;DHT22;49949;43.060;25.624;2022-07-30T01:12:58;20.20;99.90
63802;DHT22;49949;43.060;25.624;2022-07-30T01:15:26;20.10;99.90
63802;DHT22;49949;43.060;25.624;2022-07-30T01:17:55;20.10;99.90
63802;DHT22;49949;43.060;25.624;2022-07-30T01:20:35;20.00;99.90
63802;DHT22;49949;43.060;25.624;2022-07-30T01:23:33;19.90;99.90
63802;DHT22;49949;43.060;25.624;2022-07-30T01:26:12;19.90;99.90
63802;DHT22;49949;43.060;25.624;2022-07-30T01:28:47;19.90;99.90
63802;DHT22;49949;43.060;25.624;2022-07-30T01:31:15;19.90;99.90
63802;DHT22;49949;43.060;25.624;2022-07-30T01:33:44;19.80;99.90
63802;DHT22;49949;43.060;25.624;2022-07-30T01:36:13;19.70;99.90
63802;DHT22;49949;43.060;25.624;2022-07-30T01:38:42;19.70;99.90
63802;DHT22;49949;43.060;25.624;2022-07-30T01:41:08;19.70;99.90
63802;DHT22;49949;43.060;25.624;2022-07-30T01:43:36;19.60;99.90
63802;DHT22;49949;43.060;25.624;2022-07-30T01:46:03;19.60;99.90
63802;DHT22;49949;43.060;25.624;2022-07-30T01:48:30;19.60;99.90
63802;DHT22;49949;43.060;25.624;2022-07-30T01:51:02;19.60;99.90
63802;DHT22;49949;43.060;25.624;2022-07-30T01:53:30;19.50;99.90
63802;DHT22;49949;43.060;25.624;2022-07-30T01:55:58;19.50;99.90
63802;DHT22;49949;43.060;25.624;2022-07-30T01:58:27;19.50;99.90
63802;DHT22;49949;43.060;25.624;2022-07-30T02:00:55;19.50;99.90
63802;DHT22;49949;43.060;25.624;2022-07-30T02:03:23;19.50;99.90
63802;DHT22;49949;43.060;25.624;2022-07-30T02:05:52;19.50;99.90
63802;DHT22;49949;43.060;25.624;2022-07-30T02:10:57;19.40;99.90
63802;DHT22;49949;43.060;25.624;2022-07-30T02:13:27;19.40;99.90
63802;DHT22;49949;43.060;25.624;2022-07-30T02:16:10;19.40;99.90
63802;DHT22;49949;43.060;25.624;2022-07-30T02:18:47;19.30;99.90
63802;DHT22;49949;43.060;25.624;2022-07-30T02:21:17;19.40;99.90
63802;DHT22;49949;43.060;25.624;2022-07-30T02:23:45;19.40;99.90
63802;DHT22;49949;43.060;25.624;2022-07-30T02:26:17;19.30;99.90
63802;DHT22;49949;43.060;25.624;2022-07-30T02:28:46;19.20;99.90
63802;DHT22;49949;43.060;25.624;2022-07-30T02:31:13;19.20;99.90
63802;DHT22;49949;43.060;25.624;2022-07-30T02:33:43;19.20;99.90
63802;DHT22;49949;43.060;25.624;2022-07-30T02:36:10;19.20;99.90
63802;DHT22;49949;43.060;25.624;2022-07-30T02:38:38;19.10;99.90
63802;DHT22;49949;43.060;25.624;2022-07-30T02:41:07;19.10;99.90
63802;DHT22;49949;43.060;25.624;2022-07-30T02:43:34;19.10;99.90
63802;DHT22;49949;43.060;25.624;2022-07-30T02:46:02;19.00;99.90
63802;DHT22;49949;43.060;25.624;2022-07-30T02:48:29;19.00;99.90
63802;DHT22;49949;43.060;25.624;2022-07-30T02:50:56;19.00;99.90
63802;DHT22;49949;43.060;25.624;2022-07-30T02:53:24;19.00;99.90
63802;DHT22;49949;43.060;25.624;2022-07-30T02:55:54;19.00;99.90
63802;DHT22;49949;43.060;25.624;2022-07-30T02:58:22;19.00;99.90
63802;DHT22;49949;43.060;25.624;2022-07-30T03:00:51;19.00;99.90
63802;DHT22;49949;43.060;25.624;2022-07-30T03:03:19;19.10;99.90
63802;DHT22;49949;43.060;25.624;2022-07-30T03:05:49;19.10;99.90
63802;DHT22;49949;43.060;25.624;2022-07-30T03:08:16;19.10;99.90
63802;DHT22;49949;43.060;25.624;2022-07-30T03:10:44;19.00;99.90
63802;DHT22;49949;43.060;25.624;2022-07-30T03:13:11;19.00;99.90
63802;DHT22;49949;43.060;25.624;2022-07-30T03:15:42;19.00;99.90
63802;DHT22;49949;43.060;25.624;2022-07-30T03:18:12;18.90;99.90
63802;DHT22;49949;43.060;25.624;2022-07-30T03:20:38;19.00;99.90
63802;DHT22;49949;43.060;25.624;2022-07-30T03:23:05;19.00;99.90
63802;DHT22;49949;43.060;25.624;2022-07-30T03:25:32;19.00;99.90
63802;DHT22;49949;43.060;25.624;2022-07-30T03:28:00;18.90;99.90
63802;DHT22;49949;43.060;25.624;2022-07-30T03:30:29;18.90;99.90
63802;DHT22;49949;43.060;25.624;2022-07-30T03:32:56;19.00;99.90
63802;DHT22;49949;43.060;25.624;2022-07-30T03:35:22;19.00;99.90
63802;DHT22;49949;43.060;25.624;2022-07-30T03:37:52;18.90;99.90
63802;DHT22;49949;43.060;25.624;2022-07-30T03:40:18;18.90;99.90
63802;DHT22;49949;43.060;25.624;2022-07-30T03:42:44;18.80;99.90
63802;DHT22;49949;43.060;25.624;2022-07-30T03:45:11;18.90;99.90
63802;DHT22;49949;43.060;25.624;2022-07-30T03:47:40;19.20;99.90
63802;DHT22;49949;43.060;25.624;2022-07-30T03:50:08;19.50;99.90
63802;DHT22;49949;43.060;25.624;2022-07-30T03:52:37;19.80;99.90
63802;DHT22;49949;43.060;25.624;2022-07-30T03:55:06;21.00;99.90
63802;DHT22;49949;43.060;25.624;2022-07-30T03:57:33;20.60;99.90
63802;DHT22;49949;43.060;25.624;2022-07-30T04:00:00;20.80;99.90
63802;DHT22;49949;43.060;25.624;2022-07-30T04:02:26;21.20;99.90
63802;DHT22;49949;43.060;25.624;2022-07-30T04:04:52;21.20;99.90
63802;DHT22;49949;43.060;25.624;2022-07-30T04:07:18;19.10;99.90
63802;DHT22;49949;43.060;25.624;2022-07-30T04:09:43;21.70;99.90
63802;DHT22;49949;43.060;25.624;2022-07-30T04:12:09;22.10;99.90
63802;DHT22;49949;43.060;25.624;2022-07-30T04:14:40;22.40;99.70
63802;DHT22;49949;43.060;25.624;2022-07-30T04:17:12;22.40;98.60
63802;DHT22;49949;43.060;25.624;2022-07-30T04:19:47;22.50;98.60
63802;DHT22;49949;43.060;25.624;2022-07-30T04:22:18;23.00;95.10
63802;DHT22;49949;43.060;25.624;2022-07-30T04:24:45;23.30;94.10
63802;DHT22;49949;43.060;25.624;2022-07-30T04:27:13;23.70;91.70
63802;DHT22;49949;43.060;25.624;2022-07-30T04:29:39;23.80;89.70
63802;DHT22;49949;43.060;25.624;2022-07-30T04:32:07;24.20;87.70
63802;DHT22;49949;43.060;25.624;2022-07-30T04:34:33;24.40;86.30
63802;DHT22;49949;43.060;25.624;2022-07-30T04:36:58;24.60;85.80
63802;DHT22;49949;43.060;25.624;2022-07-30T04:39:24;24.80;85.00
63802;DHT22;49949;43.060;25.624;2022-07-30T04:41:50;25.00;85.30
63802;DHT22;49949;43.060;25.624;2022-07-30T04:44:17;25.40;82.20
63802;DHT22;49949;43.060;25.624;2022-07-30T04:46:43;25.60;80.20
63802;DHT22;49949;43.060;25.624;2022-07-30T04:49:10;26.00;78.80
63802;DHT22;49949;43.060;25.624;2022-07-30T04:51:37;26.40;77.00
63802;DHT22;49949;43.060;25.624;2022-07-30T04:54:06;26.50;75.80
63802;DHT22;49949;43.060;25.624;2022-07-30T04:56:34;26.50;75.10
63802;DHT22;49949;43.060;25.624;2022-07-30T04:59:01;26.70;74.60
63802;DHT22;49949;43.060;25.624;2022-07-30T05:01:33;26.90;72.40
63802;DHT22;49949;43.060;25.624;2022-07-30T05:03:59;27.00;71.80
63802;DHT22;49949;43.060;25.624;2022-07-30T05:06:27;27.00;71.80
63802;DHT22;49949;43.060;25.624;2022-07-30T05:08:53;27.10;71.20
63802;DHT22;49949;43.060;25.624;2022-07-30T05:11:19;27.50;70.70
63802;DHT22;49949;43.060;25.624;2022-07-30T05:13:46;27.70;68.80
63802;DHT22;49949;43.060;25.624;2022-07-30T05:16:15;28.20;67.10
63802;DHT22;49949;43.060;25.624;2022-07-30T05:18:41;28.20;66.80
63802;DHT22;49949;43.060;25.624;2022-07-30T05:21:08;28.30;66.20
63802;DHT22;49949;43.060;25.624;2022-07-30T05:23:34;28.50;65.10
63802;DHT22;49949;43.060;25.624;2022-07-30T05:26:00;28.60;64.60
63802;DHT22;49949;43.060;25.624;2022-07-30T05:28:26;28.80;63.10
63802;DHT22;49949;43.060;25.624;2022-07-30T05:30:52;28.90;63.20
63802;DHT22;49949;43.060;25.624;2022-07-30T05:33:19;29.10;62.90
63802;DHT22;49949;43.060;25.624;2022-07-30T05:35:45;29.20;61.40
63802;DHT22;49949;43.060;25.624;2022-07-30T05:38:11;29.20;59.80
63802;DHT22;49949;43.060;25.624;2022-07-30T05:40:37;29.00;61.30
63802;DHT22;49949;43.060;25.624;2022-07-30T05:43:03;29.00;61.50
63802;DHT22;49949;43.060;25.624;2022-07-30T05:45:29;29.00;61.30
63802;DHT22;49949;43.060;25.624;2022-07-30T05:47:55;29.00;60.80
63802;DHT22;49949;43.060;25.624;2022-07-30T05:50:20;29.00;61.50
63802;DHT22;49949;43.060;25.624;2022-07-30T05:52:46;29.00;61.90
63802;DHT22;49949;43.060;25.624;2022-07-30T05:55:12;29.20;61.40
63802;DHT22;49949;43.060;25.624;2022-07-30T05:57:38;29.50;61.10
63802;DHT22;49949;43.060;25.624;2022-07-30T06:00:07;29.60;60.90
63802;DHT22;49949;43.060;25.624;2022-07-30T06:02:34;29.70;61.30
63802;DHT22;49949;43.060;25.624;2022-07-30T06:04:59;29.90;60.30
63802;DHT22;49949;43.060;25.624;2022-07-30T06:07:25;30.20;58.60
63802;DHT22;49949;43.060;25.624;2022-07-30T06:09:51;29.90;57.50
63802;DHT22;49949;43.060;25.624;2022-07-30T06:12:17;30.00;59.50
63802;DHT22;49949;43.060;25.624;2022-07-30T06:14:43;30.30;59.50
63802;DHT22;49949;43.060;25.624;2022-07-30T06:17:09;30.40;57.40
63802;DHT22;49949;43.060;25.624;2022-07-30T06:19:35;30.60;58.60
63802;DHT22;49949;43.060;25.624;2022-07-30T06:22:01;30.90;56.70
63802;DHT22;49949;43.060;25.624;2022-07-30T06:24:26;30.80;56.50
63802;DHT22;49949;43.060;25.624;2022-07-30T06:26:52;30.70;57.30
63802;DHT22;49949;43.060;25.624;2022-07-30T06:29:18;30.80;56.00
63802;DHT22;49949;43.060;25.624;2022-07-30T06:31:43;30.80;55.50
63802;DHT22;49949;43.060;25.624;2022-07-30T06:34:09;30.70;57.00
63802;DHT22;49949;43.060;25.624;2022-07-30T06:36:35;30.90;55.30
63802;DHT22;49949;43.060;25.624;2022-07-30T06:39:01;31.00;52.80
63802;DHT22;49949;43.060;25.624;2022-07-30T06:41:26;31.10;51.00
63802;DHT22;49949;43.060;25.624;2022-07-30T06:43:52;30.80;49.30
63802;DHT22;49949;43.060;25.624;2022-07-30T06:46:18;31.00;50.90
63802;DHT22;49949;43.060;25.624;2022-07-30T06:48:43;31.20;49.20
63802;DHT22;49949;43.060;25.624;2022-07-30T06:51:09;31.10;48.00
63802;DHT22;49949;43.060;25.624;2022-07-30T06:53:35;31.00;49.20
63802;DHT22;49949;43.060;25.624;2022-07-30T06:56:00;31.00;48.70
63802;DHT22;49949;43.060;25.624;2022-07-30T06:58:26;30.90;48.20
63802;DHT22;49949;43.060;25.624;2022-07-30T07:00:52;31.00;47.70
63802;DHT22;49949;43.060;25.624;2022-07-30T07:03:18;30.80;47.90
63802;DHT22;49949;43.060;25.624;2022-07-30T07:05:44;31.10;47.40
63802;DHT22;49949;43.060;25.624;2022-07-30T07:08:09;31.30;47.50
63802;DHT22;49949;43.060;25.624;2022-07-30T07:10:35;31.40;46.50
63802;DHT22;49949;43.060;25.624;2022-07-30T07:13:01;31.80;46.20
63802;DHT22;49949;43.060;25.624;2022-07-30T07:15:26;32.00;45.10
63802;DHT22;49949;43.060;25.624;2022-07-30T07:17:52;31.80;44.50
63802;DHT22;49949;43.060;25.624;2022-07-30T07:20:18;31.80;45.30
63802;DHT22;49949;43.060;25.624;2022-07-30T07:22:43;31.90;44.90
63802;DHT22;49949;43.060;25.624;2022-07-30T07:25:09;31.90;44.00
63802;DHT22;49949;43.060;25.624;2022-07-30T07:27:36;32.20;43.00
63802;DHT22;49949;43.060;25.624;2022-07-30T07:30:03;33.40;43.70
63802;DHT22;49949;43.060;25.624;2022-07-30T07:32:29;33.10;42.00
63802;DHT22;49949;43.060;25.624;2022-07-30T07:34:54;33.20;40.60
63802;DHT22;49949;43.060;25.624;2022-07-30T07:37:20;33.30;41.50
63802;DHT22;49949;43.060;25.624;2022-07-30T07:39:46;33.20;40.70
63802;DHT22;49949;43.060;25.624;2022-07-30T07:42:11;33.30;40.40
63802;DHT22;49949;43.060;25.624;2022-07-30T07:44:37;33.50;39.00
63802;DHT22;49949;43.060;25.624;2022-07-30T07:47:03;33.50;39.90
63802;DHT22;49949;43.060;25.624;2022-07-30T07:49:29;33.00;41.00
63802;DHT22;49949;43.060;25.624;2022-07-30T07:51:54;33.00;41.20
63802;DHT22;49949;43.060;25.624;2022-07-30T07:54:20;33.00;41.10
63802;DHT22;49949;43.060;25.624;2022-07-30T07:56:46;33.30;40.50
63802;DHT22;49949;43.060;25.624;2022-07-30T07:59:13;33.20;39.90
63802;DHT22;49949;43.060;25.624;2022-07-30T08:01:38;33.00;40.70
63802;DHT22;49949;43.060;25.624;2022-07-30T08:04:04;32.80;40.20
63802;DHT22;49949;43.060;25.624;2022-07-30T08:06:30;33.20;39.70
63802;DHT22;49949;43.060;25.624;2022-07-30T08:08:55;33.60;39.20
63802;DHT22;49949;43.060;25.624;2022-07-30T08:11:21;33.60;38.40
63802;DHT22;49949;43.060;25.624;2022-07-30T08:13:47;33.80;38.40
63802;DHT22;49949;43.060;25.624;2022-07-30T08:16:13;33.70;37.70
63802;DHT22;49949;43.060;25.624;2022-07-30T08:18:39;33.80;36.70
63802;DHT22;49949;43.060;25.624;2022-07-30T08:21:05;33.90;37.00
63802;DHT22;49949;43.060;25.624;2022-07-30T08:23:32;34.00;37.20
63802;DHT22;49949;43.060;25.624;2022-07-30T08:25:58;34.20;35.90
63802;DHT22;49949;43.060;25.624;2022-07-30T08:28:24;34.50;35.70
63802;DHT22;49949;43.060;25.624;2022-07-30T08:30:50;34.30;36.60
63802;DHT22;49949;43.060;25.624;2022-07-30T08:33:16;34.20;36.70
63802;DHT22;49949;43.060;25.624;2022-07-30T08:35:41;34.00;36.80
63802;DHT22;49949;43.060;25.624;2022-07-30T08:38:07;34.30;36.10
63802;DHT22;49949;43.060;25.624;2022-07-30T08:40:34;34.40;35.80
63802;DHT22;49949;43.060;25.624;2022-07-30T08:43:04;34.40;35.90
63802;DHT22;49949;43.060;25.624;2022-07-30T08:45:31;34.80;34.60
63802;DHT22;49949;43.060;25.624;2022-07-30T08:47:59;35.10;33.70
63802;DHT22;49949;43.060;25.624;2022-07-30T08:50:26;35.30;33.40
63802;DHT22;49949;43.060;25.624;2022-07-30T08:52:53;35.10;34.00
63802;DHT22;49949;43.060;25.624;2022-07-30T08:55:23;35.30;32.90
63802;DHT22;49949;43.060;25.624;2022-07-30T08:57:50;35.60;33.00
63802;DHT22;49949;43.060;25.624;2022-07-30T09:00:17;35.90;33.20
63802;DHT22;49949;43.060;25.624;2022-07-30T09:02:43;36.00;31.40
63802;DHT22;49949;43.060;25.624;2022-07-30T09:05:10;36.10;32.20
63802;DHT22;49949;43.060;25.624;2022-07-30T09:07:37;36.50;31.20
63802;DHT22;49949;43.060;25.624;2022-07-30T09:10:04;36.60;30.10
63802;DHT22;49949;43.060;25.624;2022-07-30T09:17:46;35.80;32.30
63802;DHT22;49949;43.060;25.624;2022-07-30T09:20:12;36.00;32.30
63802;DHT22;49949;43.060;25.624;2022-07-30T09:22:53;36.10;32.80
63802;DHT22;49949;43.060;25.624;2022-07-30T09:25:46;36.30;31.20
63802;DHT22;49949;43.060;25.624;2022-07-30T09:28:12;36.80;29.60
63802;DHT22;49949;43.060;25.624;2022-07-30T09:30:52;36.90;29.20
63802;DHT22;49949;43.060;25.624;2022-07-30T09:33:34;36.80;28.80
63802;DHT22;49949;43.060;25.624;2022-07-30T09:36:00;36.40;31.00
63802;DHT22;49949;43.060;25.624;2022-07-30T09:38:26;35.90;30.90
63802;DHT22;49949;43.060;25.624;2022-07-30T09:40:56;35.90;29.80
63802;DHT22;49949;43.060;25.624;2022-07-30T09:43:22;36.00;30.00
63802;DHT22;49949;43.060;25.624;2022-07-30T09:45:54;36.10;29.00
63802;DHT22;49949;43.060;25.624;2022-07-30T09:48:26;36.20;29.80
63802;DHT22;49949;43.060;25.624;2022-07-30T09:50:53;36.60;28.80
63802;DHT22;49949;43.060;25.624;2022-07-30T09:53:19;37.00;28.30
63802;DHT22;49949;43.060;25.624;2022-07-30T09:55:47;37.20;28.50
63802;DHT22;49949;43.060;25.624;2022-07-30T09:58:13;37.20;27.20
63802;DHT22;49949;43.060;25.624;2022-07-30T10:00:40;37.20;27.10
63802;DHT22;49949;43.060;25.624;2022-07-30T10:03:21;37.20;27.10
63802;DHT22;49949;43.060;25.624;2022-07-30T10:08:17;35.90;28.60
63802;DHT22;49949;43.060;25.624;2022-07-30T10:10:43;35.90;29.10
63802;DHT22;49949;43.060;25.624;2022-07-30T10:13:12;35.60;29.60
63802;DHT22;49949;43.060;25.624;2022-07-30T10:15:39;35.60;30.00
63802;DHT22;49949;43.060;25.624;2022-07-30T10:18:05;35.70;29.20
63802;DHT22;49949;43.060;25.624;2022-07-30T10:20:31;35.80;27.60
63802;DHT22;49949;43.060;25.624;2022-07-30T10:22:57;36.10;27.90
63802;DHT22;49949;43.060;25.624;2022-07-30T10:25:24;36.40;27.00
63802;DHT22;49949;43.060;25.624;2022-07-30T10:27:51;36.60;26.70
63802;DHT22;49949;43.060;25.624;2022-07-30T10:30:17;36.40;26.90
63802;DHT22;49949;43.060;25.624;2022-07-30T10:32:44;36.00;28.10
63802;DHT22;49949;43.060;25.624;2022-07-30T10:35:12;36.00;28.30
63802;DHT22;49949;43.060;25.624;2022-07-30T10:37:43;35.90;27.70
63802;DHT22;49949;43.060;25.624;2022-07-30T10:40:13;36.10;28.60
63802;DHT22;49949;43.060;25.624;2022-07-30T10:43:00;36.50;28.40
63802;DHT22;49949;43.060;25.624;2022-07-30T10:48:02;36.20;28.80
63802;DHT22;49949;43.060;25.624;2022-07-30T10:50:28;36.20;28.50
63802;DHT22;49949;43.060;25.624;2022-07-30T10:52:57;36.20;29.00
63802;DHT22;49949;43.060;25.624;2022-07-30T10:55:28;36.30;27.80
63802;DHT22;49949;43.060;25.624;2022-07-30T10:58:07;36.00;29.20
63802;DHT22;49949;43.060;25.624;2022-07-30T11:03:29;35.40;30.40
63802;DHT22;49949;43.060;25.624;2022-07-30T11:08:43;35.70;29.00
63802;DHT22;49949;43.060;25.624;2022-07-30T11:13:51;36.00;29.10
63802;DHT22;49949;43.060;25.624;2022-07-30T11:19:03;36.10;29.10
63802;DHT22;49949;43.060;25.624;2022-07-30T11:21:30;36.20;29.00
63802;DHT22;49949;43.060;25.624;2022-07-30T11:23:57;36.30;28.70
63802;DHT22;49949;43.060;25.624;2022-07-30T11:29:07;36.20;29.00
63802;DHT22;49949;43.060;25.624;2022-07-30T11:31:34;36.00;29.60
63802;DHT22;49949;43.060;25.624;2022-07-30T11:37:12;35.80;29.30
63802;DHT22;49949;43.060;25.624;2022-07-30T11:42:32;36.30;28.60
63802;DHT22;49949;43.060;25.624;2022-07-30T11:47:48;36.50;27.60
63802;DHT22;49949;43.060;25.624;2022-07-30T11:50:22;36.50;27.80
63802;DHT22;49949;43.060;25.624;2022-07-30T11:52:59;36.60;27.90
63802;DHT22;49949;43.060;25.624;2022-07-30T11:55:37;36.70;27.90
63802;DHT22;49949;43.060;25.624;2022-07-30T11:58:09;36.90;27.30
63802;DHT22;49949;43.060;25.624;2022-07-30T12:00:38;37.10;26.80
63802;DHT22;49949;43.060;25.624;2022-07-30T12:03:11;37.00;27.80
63802;DHT22;49949;43.060;25.624;2022-07-30T12:05:38;36.70;27.90
63802;DHT22;49949;43.060;25.624;2022-07-30T12:08:04;36.70;27.50
63802;DHT22;49949;43.060;25.624;2022-07-30T12:10:30;37.00;27.30
63802;DHT22;49949;43.060;25.624;2022-07-30T12:13:07;37.20;27.10
63802;DHT22;49949;43.060;25.624;2022-07-30T12:15:34;37.40;26.60
63802;DHT22;49949;43.060;25.624;2022-07-30T12:18:00;37.20;27.20
63802;DHT22;49949;43.060;25.624;2022-07-30T12:20:27;36.80;27.20
63802;DHT22;49949;43.060;25.624;2022-07-30T12:22:53;36.70;28.40
63802;DHT22;49949;43.060;25.624;2022-07-30T12:25:19;36.50;27.50
63802;DHT22;49949;43.060;25.624;2022-07-30T12:27:46;36.20;28.00
63802;DHT22;49949;43.060;25.624;2022-07-30T12:30:13;36.10;28.00
63802;DHT22;49949;43.060;25.624;2022-07-30T12:32:39;36.30;28.90
63802;DHT22;49949;43.060;25.624;2022-07-30T12:35:05;36.30;28.30
63802;DHT22;49949;43.060;25.624;2022-07-30T12:37:31;36.50;27.60
63802;DHT22;49949;43.060;25.624;2022-07-30T12:40:13;36.50;27.90
63802;DHT22;49949;43.060;25.624;2022-07-30T12:42:51;35.90;28.00
63802;DHT22;49949;43.060;25.624;2022-07-30T12:45:30;35.90;29.00
63802;DHT22;49949;43.060;25.624;2022-07-30T12:47:59;35.60;29.60
63802;DHT22;49949;43.060;25.624;2022-07-30T12:50:26;35.70;29.50
63802;DHT22;49949;43.060;25.624;2022-07-30T12:52:53;35.80;29.10
63802;DHT22;49949;43.060;25.624;2022-07-30T12:55:32;35.90;28.60
63802;DHT22;49949;43.060;25.624;2022-07-30T12:58:02;36.10;28.10
63802;DHT22;49949;43.060;25.624;2022-07-30T13:03:26;36.30;27.80
63802;DHT22;49949;43.060;25.624;2022-07-30T13:05:54;36.50;27.70
63802;DHT22;49949;43.060;25.624;2022-07-30T13:08:30;36.40;27.60
63802;DHT22;49949;43.060;25.624;2022-07-30T13:11:06;36.30;27.30
63802;DHT22;49949;43.060;25.624;2022-07-30T13:13:33;36.20;27.50
63802;DHT22;49949;43.060;25.624;2022-07-30T13:16:02;36.10;27.80
63802;DHT22;49949;43.060;25.624;2022-07-30T13:18:29;36.10;29.00
63802;DHT22;49949;43.060;25.624;2022-07-30T13:20:56;36.10;28.30
63802;DHT22;49949;43.060;25.624;2022-07-30T13:23:23;36.10;28.50
63802;DHT22;49949;43.060;25.624;2022-07-30T13:25:49;36.10;28.80
63802;DHT22;49949;43.060;25.624;2022-07-30T13:28:15;36.30;29.10
63802;DHT22;49949;43.060;25.624;2022-07-30T13:30:40;36.50;28.80
63802;DHT22;49949;43.060;25.624;2022-07-30T13:33:06;36.70;27.80
63802;DHT22;49949;43.060;25.624;2022-07-30T13:35:32;36.70;27.90
63802;DHT22;49949;43.060;25.624;2022-07-30T13:37:58;36.80;27.60
63802;DHT22;49949;43.060;25.624;2022-07-30T13:40:26;36.90;28.00
63802;DHT22;49949;43.060;25.624;2022-07-30T13:42:51;37.00;28.30
63802;DHT22;49949;43.060;25.624;2022-07-30T13:45:17;37.10;27.10
63802;DHT22;49949;43.060;25.624;2022-07-30T13:47:43;37.30;26.50
63802;DHT22;49949;43.060;25.624;2022-07-30T13:50:09;37.00;26.40
63802;DHT22;49949;43.060;25.624;2022-07-30T13:52:34;36.70;26.70
63802;DHT22;49949;43.060;25.624;2022-07-30T13:55:00;36.70;27.80
63802;DHT22;49949;43.060;25.624;2022-07-30T13:57:26;36.60;27.90
63802;DHT22;49949;43.060;25.624;2022-07-30T13:59:51;36.50;28.70
63802;DHT22;49949;43.060;25.624;2022-07-30T14:02:18;36.50;28.50
63802;DHT22;49949;43.060;25.624;2022-07-30T14:04:44;36.70;28.10
63802;DHT22;49949;43.060;25.624;2022-07-30T14:07:09;36.80;27.60
63802;DHT22;49949;43.060;25.624;2022-07-30T14:09:35;36.70;27.70
63802;DHT22;49949;43.060;25.624;2022-07-30T14:12:01;36.50;28.50
63802;DHT22;49949;43.060;25.624;2022-07-30T14:14:27;36.60;28.10
63802;DHT22;49949;43.060;25.624;2022-07-30T14:16:52;36.80;28.10
63802;DHT22;49949;43.060;25.624;2022-07-30T14:19:18;36.80;28.50
63802;DHT22;49949;43.060;25.624;2022-07-30T14:21:44;37.00;29.30
63802;DHT22;49949;43.060;25.624;2022-07-30T14:24:10;37.10;27.40
63802;DHT22;49949;43.060;25.624;2022-07-30T14:26:37;37.10;27.00
63802;DHT22;49949;43.060;25.624;2022-07-30T14:29:06;37.20;27.50
63802;DHT22;49949;43.060;25.624;2022-07-30T14:31:33;37.30;27.80
63802;DHT22;49949;43.060;25.624;2022-07-30T14:33:59;37.40;27.90
63802;DHT22;49949;43.060;25.624;2022-07-30T14:36:25;37.30;27.20
63802;DHT22;49949;43.060;25.624;2022-07-30T14:38:57;36.90;27.60
63802;DHT22;49949;43.060;25.624;2022-07-30T14:41:24;36.50;28.10
63802;DHT22;49949;43.060;25.624;2022-07-30T14:43:51;36.50;27.90
63802;DHT22;49949;43.060;25.624;2022-07-30T14:46:17;36.40;28.60
63802;DHT22;49949;43.060;25.624;2022-07-30T14:48:43;36.10;29.70
63802;DHT22;49949;43.060;25.624;2022-07-30T14:51:08;36.10;29.70
63802;DHT22;49949;43.060;25.624;2022-07-30T14:53:34;36.10;29.10
63802;DHT22;49949;43.060;25.624;2022-07-30T14:56:00;36.20;29.20
63802;DHT22;49949;43.060;25.624;2022-07-30T14:58:26;36.30;28.00
63802;DHT22;49949;43.060;25.624;2022-07-30T15:00:51;36.40;28.60
63802;DHT22;49949;43.060;25.624;2022-07-30T15:03:17;36.40;28.00
63802;DHT22;49949;43.060;25.624;2022-07-30T15:05:43;36.40;27.80
63802;DHT22;49949;43.060;25.624;2022-07-30T15:08:09;36.50;27.60
63802;DHT22;49949;43.060;25.624;2022-07-30T15:10:35;36.50;28.10
63802;DHT22;49949;43.060;25.624;2022-07-30T15:13:00;36.30;28.60
63802;DHT22;49949;43.060;25.624;2022-07-30T15:15:26;36.20;28.20
63802;DHT22;49949;43.060;25.624;2022-07-30T15:17:52;36.20;27.80
63802;DHT22;49949;43.060;25.624;2022-07-30T15:20:17;36.20;28.10
63802;DHT22;49949;43.060;25.624;2022-07-30T15:22:44;36.30;27.70
63802;DHT22;49949;43.060;25.624;2022-07-30T15:25:10;36.50;27.00
63802;DHT22;49949;43.060;25.624;2022-07-30T15:27:36;36.60;27.10
63802;DHT22;49949;43.060;25.624;2022-07-30T15:30:03;36.70;26.50
63802;DHT22;49949;43.060;25.624;2022-07-30T15:32:28;36.50;27.10
63802;DHT22;49949;43.060;25.624;2022-07-30T15:34:54;36.30;27.60
63802;DHT22;49949;43.060;25.624;2022-07-30T15:37:20;36.40;26.30
63802;DHT22;49949;43.060;25.624;2022-07-30T15:39:46;36.50;27.00
63802;DHT22;49949;43.060;25.624;2022-07-30T15:42:12;36.50;27.00
63802;DHT22;49949;43.060;25.624;2022-07-30T15:44:38;36.60;26.60
63802;DHT22;49949;43.060;25.624;2022-07-30T15:47:03;36.70;26.90
63802;DHT22;49949;43.060;25.624;2022-07-30T15:49:29;36.70;25.60
63802;DHT22;49949;43.060;25.624;2022-07-30T15:51:57;36.40;26.50
63802;DHT22;49949;43.060;25.624;2022-07-30T15:54:23;36.40;26.50
63802;DHT22;49949;43.060;25.624;2022-07-30T15:56:50;36.20;26.80